createdAt,value
2018-05-17T00:00:10.422Z,99923.61
2018-05-17T00:01:16.960Z,99922.70
2018-05-17T00:02:24.267Z,99921.38
2018-05-17T00:03:30.799Z,99921.12
2018-05-17T00:04:36.578Z,99916.31
2018-05-17T00:05:43.111Z,99919.58
2018-05-17T00:06:48.883Z,99919.95
2018-05-17T00:07:54.666Z,99919.95
2018-05-17T00:09:00.457Z,99919.58
2018-05-17T00:10:06.994Z,99924.02
2018-05-17T00:11:12.773Z,99923.01
2018-05-17T00:12:18.549Z,99914.19
2018-05-17T00:13:24.350Z,99921.12
2018-05-17T00:14:30.879Z,99921.44
2018-05-17T00:15:36.429Z,99925.03
2018-05-17T00:16:42.971Z,99918.85
2018-05-17T00:17:48.738Z,99921.49
2018-05-17T00:18:55.311Z,99920.12
2018-05-17T00:20:01.112Z,99919.27
2018-05-17T00:21:06.887Z,99919.22
2018-05-17T00:22:12.663Z,99919.16
2018-05-17T00:23:18.436Z,99920.65
2018-05-17T00:24:24.235Z,99916.69
2018-05-17T00:25:30.228Z,99917.00
2018-05-17T00:26:36.004Z,99915.20
2018-05-17T00:27:41.844Z,99918.69
2018-05-17T00:28:48.375Z,99913.41
2018-05-17T00:29:54.178Z,99915.63
2018-05-17T00:30:59.982Z,99909.07
2018-05-17T00:32:06.531Z,99914.83
2018-05-17T00:33:13.074Z,99910.08
2018-05-17T00:34:18.851Z,99916.27
2018-05-17T00:35:24.648Z,99911.77
2018-05-17T00:36:30.419Z,99911.66
2018-05-17T00:37:37.014Z,99913.77
2018-05-17T00:38:42.772Z,99913.62
2018-05-17T00:39:48.564Z,99912.67
2018-05-17T00:40:55.120Z,99910.82
2018-05-17T00:42:00.904Z,99915.06
2018-05-17T00:43:06.679Z,99913.27
2018-05-17T00:44:12.469Z,99908.55
2018-05-17T00:45:19.009Z,99913.27
2018-05-17T00:46:24.811Z,99904.80
2018-05-17T00:47:30.583Z,99910.94
2018-05-17T00:48:36.367Z,99909.51
2018-05-17T00:49:42.135Z,99913.80
2018-05-17T00:50:47.905Z,99906.13
2018-05-17T00:51:53.707Z,99911.78
2018-05-17T00:53:16.345Z,99914.70
2018-05-17T00:54:22.195Z,99912.06
2018-05-17T00:55:28.078Z,99918.62
2018-05-17T00:56:33.850Z,99914.55
2018-05-17T00:57:39.638Z,99917.61
2018-05-17T00:58:45.415Z,99915.92
2018-05-17T00:59:51.957Z,99912.32
2018-05-17T01:00:57.725Z,99914.91
2018-05-17T01:02:03.520Z,99913.95
2018-05-17T01:03:09.344Z,99911.37
2018-05-17T01:04:15.120Z,99910.80
2018-05-17T01:05:20.892Z,99908.95
2018-05-17T01:06:27.432Z,99914.66
2018-05-17T01:07:33.198Z,99912.86
2018-05-17T01:08:39.752Z,99908.53
2018-05-17T01:09:46.291Z,99906.67
2018-05-17T01:10:52.060Z,99906.56
2018-05-17T01:11:57.835Z,99903.83
2018-05-17T01:13:03.602Z,99907.41
2018-05-17T01:14:09.407Z,99904.34
2018-05-17T01:15:15.169Z,99902.82
2018-05-17T01:16:20.944Z,99904.56
2018-05-17T01:17:26.711Z,99903.77
2018-05-17T01:18:33.247Z,99904.25
2018-05-17T01:19:38.728Z,99908.64
2018-05-17T01:20:44.487Z,99905.57
2018-05-17T01:21:50.253Z,99902.93
2018-05-17T01:22:56.012Z,99909.96
2018-05-17T01:24:01.816Z,99903.02
2018-05-17T01:25:07.620Z,99903.08
2018-05-17T01:26:14.164Z,99904.03
2018-05-17T01:27:19.980Z,99909.56
2018-05-17T01:28:25.748Z,99899.41
2018-05-17T01:29:31.521Z,99902.96
2018-05-17T01:30:37.394Z,99899.95
2018-05-17T01:31:43.381Z,99904.45
2018-05-17T01:32:49.918Z,99905.83
2018-05-17T01:33:55.700Z,99903.72
2018-05-17T01:35:02.315Z,99909.56
2018-05-17T01:36:09.016Z,99910.58
2018-05-17T01:37:32.251Z,99906.77
2018-05-17T01:38:38.030Z,99912.42
2018-05-17T01:39:43.806Z,99902.89
2018-05-17T01:40:49.581Z,99912.30
2018-05-17T01:41:56.143Z,99910.62
2018-05-17T01:43:01.918Z,99910.62
2018-05-17T01:44:07.690Z,99911.89
2018-05-17T01:45:13.464Z,99913.83
2018-05-17T01:46:19.271Z,99916.95
2018-05-17T01:47:25.163Z,99919.16
2018-05-17T01:48:31.699Z,99916.95
2018-05-17T01:49:37.475Z,99922.39
2018-05-17T01:50:44.012Z,99921.07
2018-05-17T01:51:49.866Z,99921.55
2018-05-17T01:52:55.654Z,99917.25
2018-05-17T01:54:01.477Z,99924.66
2018-05-17T01:55:08.011Z,99916.41
2018-05-17T01:56:14.543Z,99915.50
2018-05-17T01:57:20.313Z,99916.41
2018-05-17T01:58:26.158Z,99917.89
2018-05-17T01:59:32.691Z,99919.05
2018-05-17T02:00:38.467Z,99918.14
2018-05-17T02:01:45.029Z,99918.63
2018-05-17T02:02:50.796Z,99919.10
2018-05-17T02:03:56.695Z,99925.23
2018-05-17T02:05:03.235Z,99915.98
2018-05-17T02:06:09.006Z,99917.72
2018-05-17T02:07:15.539Z,99918.84
2018-05-17T02:08:21.315Z,99915.35
2018-05-17T02:09:27.675Z,99920.11
2018-05-17T02:10:34.215Z,99914.41
2018-05-17T02:11:40.081Z,99923.17
2018-05-17T02:12:46.612Z,99922.27
2018-05-17T02:13:52.405Z,99915.08
2018-05-17T02:14:58.196Z,99916.10
2018-05-17T02:16:03.963Z,99919.70
2018-05-17T02:17:10.502Z,99923.11
2018-05-17T02:18:16.277Z,99919.78
2018-05-17T02:19:22.811Z,99918.63
2018-05-17T02:20:28.601Z,99923.06
2018-05-17T02:21:34.371Z,99918.63
2018-05-17T02:22:40.173Z,99922.64
2018-05-17T02:23:45.936Z,99918.63
2018-05-17T02:24:51.700Z,99923.96
2018-05-17T02:25:57.495Z,99923.17
2018-05-17T02:27:03.273Z,99924.49
2018-05-17T02:28:09.049Z,99931.23
2018-05-17T02:29:14.928Z,99925.11
2018-05-17T02:30:20.705Z,99931.17
2018-05-17T02:31:26.493Z,99930.61
2018-05-17T02:32:33.121Z,99933.81
2018-05-17T02:33:39.772Z,99933.97
2018-05-17T02:34:45.560Z,99931.94
2018-05-17T02:35:52.112Z,99931.73
2018-05-17T02:36:57.895Z,99933.95
2018-05-17T02:38:03.665Z,99932.77
2018-05-17T02:39:09.651Z,99929.39
2018-05-17T02:40:16.191Z,99938.69
2018-05-17T02:41:21.963Z,99936.66
2018-05-17T02:42:27.848Z,99931.54
2018-05-17T02:43:33.615Z,99933.76
2018-05-17T02:44:39.807Z,99931.78
2018-05-17T02:45:45.572Z,99934.90
2018-05-17T02:46:51.550Z,99945.03
2018-05-17T02:47:58.131Z,99938.48
2018-05-17T02:49:04.724Z,99944.44
2018-05-17T02:50:10.692Z,99946.28
2018-05-17T02:51:16.467Z,99945.97
2018-05-17T02:52:22.259Z,99946.02
2018-05-17T02:53:28.065Z,99945.13
2018-05-17T02:54:34.611Z,99944.27
2018-05-17T02:55:40.415Z,99946.97
2018-05-17T02:56:46.191Z,99942.62
2018-05-17T02:57:51.956Z,99947.11
2018-05-17T02:58:58.520Z,99946.63
2018-05-17T03:00:04.159Z,99948.48
2018-05-17T03:01:10.075Z,99944.62
2018-05-17T03:02:15.862Z,99946.19
2018-05-17T03:03:21.622Z,99948.45
2018-05-17T03:04:27.403Z,99950.30
2018-05-17T03:05:33.173Z,99952.52
2018-05-17T03:06:39.712Z,99950.72
2018-05-17T03:07:45.484Z,99953.41
2018-05-17T03:08:51.259Z,99951.49
2018-05-17T03:09:57.056Z,99956.06
2018-05-17T03:11:02.840Z,99961.39
2018-05-17T03:12:08.616Z,99963.05
2018-05-17T03:13:15.155Z,99955.22
2018-05-17T03:14:20.920Z,99960.07
2018-05-17T03:15:25.832Z,99962.39
2018-05-17T03:16:31.617Z,99962.92
2018-05-17T03:17:37.392Z,99961.55
2018-05-17T03:18:43.210Z,99968.33
2018-05-17T03:19:48.991Z,99969.28
2018-05-17T03:20:54.798Z,99967.17
2018-05-17T03:22:00.563Z,99964.00
2018-05-17T03:23:06.368Z,99961.47
2018-05-17T03:24:12.131Z,99972.13
2018-05-17T03:25:17.916Z,99975.98
2018-05-17T03:26:23.704Z,99961.57
2018-05-17T03:27:29.490Z,99968.59
2018-05-17T03:28:35.254Z,99974.29
2018-05-17T03:29:41.849Z,99977.73
2018-05-17T03:30:47.632Z,99978.63
2018-05-17T03:31:53.415Z,99969.91
2018-05-17T03:32:59.962Z,99982.16
2018-05-17T03:34:06.720Z,99979.94
2018-05-17T03:35:12.483Z,99980.89
2018-05-17T03:36:19.022Z,99983.95
2018-05-17T03:37:24.811Z,99979.09
2018-05-17T03:38:30.575Z,99983.58
2018-05-17T03:39:36.376Z,99982.39
2018-05-17T03:40:42.951Z,99981.55
2018-05-17T03:41:48.744Z,99987.35
2018-05-17T03:42:54.523Z,99983.02
2018-05-17T03:44:00.304Z,99984.30
2018-05-17T03:45:05.740Z,99982.55
2018-05-17T03:46:11.507Z,99985.56
2018-05-17T03:47:18.797Z,99988.35
2018-05-17T03:48:24.595Z,99982.59
2018-05-17T03:49:30.366Z,99984.39
2018-05-17T03:50:36.143Z,99984.95
2018-05-17T03:51:41.922Z,99984.10
2018-05-17T03:52:47.688Z,99984.10
2018-05-17T03:53:54.975Z,99980.94
2018-05-17T03:55:00.743Z,99983.50
2018-05-17T03:56:07.271Z,99981.75
2018-05-17T03:57:13.062Z,99987.88
2018-05-17T03:58:18.821Z,99984.90
2018-05-17T03:59:24.723Z,99989.28
2018-05-17T04:00:47.181Z,99995.70
2018-05-17T04:02:09.634Z,99992.73
2018-05-17T04:03:32.223Z,99988.02
2018-05-17T04:06:36.583Z,99984.00
2018-05-17T04:07:42.411Z,99998.44
2018-05-17T04:08:48.189Z,99998.75
2018-05-17T04:09:53.966Z,99990.78
2018-05-17T04:11:00.529Z,99992.42
2018-05-17T04:12:07.084Z,99994.41
2018-05-17T04:13:13.616Z,99990.87
2018-05-17T04:14:19.396Z,100002.70
2018-05-17T04:15:25.933Z,99996.09
2018-05-17T04:16:33.219Z,99999.63
2018-05-17T04:17:38.999Z,100001.48
2018-05-17T04:18:44.774Z,100000.16
2018-05-17T04:19:50.557Z,100004.96
2018-05-17T04:20:57.090Z,100002.80
2018-05-17T04:22:02.899Z,100002.38
2018-05-17T04:23:08.685Z,99997.94
2018-05-17T04:24:14.479Z,100001.05
2018-05-17T04:25:20.031Z,100005.02
2018-05-17T04:26:25.924Z,100000.95
2018-05-17T04:27:31.880Z,100012.22
2018-05-17T04:28:37.663Z,100002.94
2018-05-17T04:29:43.510Z,100010.80
2018-05-17T04:30:49.281Z,100013.81
2018-05-17T04:31:55.823Z,100012.39
2018-05-17T04:33:01.637Z,100008.34
2018-05-17T04:34:07.404Z,100015.16
2018-05-17T04:35:13.240Z,100007.95
2018-05-17T04:36:19.012Z,100011.34
2018-05-17T04:37:24.873Z,100015.67
2018-05-17T04:38:31.863Z,100018.07
2018-05-17T04:39:37.635Z,100021.08
2018-05-17T04:40:43.423Z,100015.22
2018-05-17T04:41:49.983Z,100019.84
2018-05-17T04:42:56.538Z,100022.86
2018-05-17T04:44:03.103Z,100023.46
2018-05-17T04:45:08.883Z,100024.97
2018-05-17T04:46:14.659Z,100027.40
2018-05-17T04:47:20.449Z,100034.66
2018-05-17T04:48:25.904Z,100034.92
2018-05-17T04:49:31.712Z,100027.61
2018-05-17T04:50:38.287Z,100031.15
2018-05-17T04:51:44.069Z,100026.94
2018-05-17T04:52:49.845Z,100027.16
2018-05-17T04:53:56.401Z,100025.02
2018-05-17T04:55:02.192Z,100026.56
2018-05-17T04:56:07.966Z,100030.32
2018-05-17T04:57:14.516Z,100028.86
2018-05-17T04:58:20.327Z,100033.97
2018-05-17T04:59:26.105Z,100035.94
2018-05-17T05:00:32.049Z,100034.41
2018-05-17T05:01:37.832Z,100035.22
2018-05-17T05:02:44.755Z,100035.38
2018-05-17T05:03:50.737Z,100041.84
2018-05-17T05:04:57.292Z,100040.42
2018-05-17T05:06:03.101Z,100045.97
2018-05-17T05:07:09.084Z,100045.23
2018-05-17T05:08:14.876Z,100042.77
2018-05-17T05:09:20.739Z,100039.48
2018-05-17T05:10:26.695Z,100041.17
2018-05-17T05:11:32.504Z,100046.52
2018-05-17T05:12:38.571Z,100048.55
2018-05-17T05:13:44.578Z,100046.27
2018-05-17T05:14:50.579Z,100043.89
2018-05-17T05:15:56.594Z,100045.19
2018-05-17T05:17:02.467Z,100045.27
2018-05-17T05:18:08.328Z,100055.00
2018-05-17T05:19:14.219Z,100053.22
2018-05-17T05:20:20.096Z,100053.59
2018-05-17T05:21:25.868Z,100057.20
2018-05-17T05:22:31.676Z,100055.77
2018-05-17T05:23:37.471Z,100054.94
2018-05-17T05:24:44.015Z,100056.95
2018-05-17T05:25:49.803Z,100052.04
2018-05-17T05:26:55.583Z,100062.88
2018-05-17T05:28:01.399Z,100062.83
2018-05-17T05:29:07.183Z,100060.59
2018-05-17T05:30:13.739Z,100067.69
2018-05-17T05:31:19.513Z,100064.91
2018-05-17T05:32:25.287Z,100059.56
2018-05-17T05:33:31.093Z,100060.23
2018-05-17T05:34:36.871Z,100070.88
2018-05-17T05:35:42.674Z,100063.43
2018-05-17T05:36:49.249Z,100068.84
2018-05-17T05:37:55.021Z,100076.16
2018-05-17T05:39:00.839Z,100074.98
2018-05-17T05:40:06.619Z,100077.95
2018-05-17T05:41:12.405Z,100070.50
2018-05-17T05:42:18.196Z,100085.56
2018-05-17T05:43:24.003Z,100080.61
2018-05-17T05:44:29.847Z,100084.94
2018-05-17T05:45:35.832Z,100087.95
2018-05-17T05:46:41.671Z,100081.88
2018-05-17T05:47:47.450Z,100088.80
2018-05-17T05:48:54.062Z,100096.12
2018-05-17T05:50:00.795Z,100089.11
2018-05-17T05:51:06.250Z,100089.28
2018-05-17T05:52:12.014Z,100090.44
2018-05-17T05:53:17.809Z,100091.29
2018-05-17T05:54:24.382Z,100090.02
2018-05-17T05:55:30.181Z,100090.66
2018-05-17T05:56:35.966Z,100083.50
2018-05-17T05:57:41.751Z,100087.52
2018-05-17T05:58:47.533Z,100094.07
2018-05-17T05:59:54.087Z,100093.64
2018-05-17T06:01:00.662Z,100094.50
2018-05-17T06:02:06.445Z,100096.55
2018-05-17T06:03:12.234Z,100097.70
2018-05-17T06:04:18.798Z,100094.08
2018-05-17T06:05:25.345Z,100097.73
2018-05-17T06:06:31.911Z,100097.08
2018-05-17T06:07:38.460Z,100096.39
2018-05-17T06:08:44.255Z,100092.14
2018-05-17T06:09:50.025Z,100095.21
2018-05-17T06:10:55.526Z,100097.44
2018-05-17T06:12:01.325Z,100101.84
2018-05-17T06:13:07.294Z,100100.98
2018-05-17T06:14:13.083Z,100103.55
2018-05-17T06:15:18.855Z,100090.22
2018-05-17T06:16:25.399Z,100102.24
2018-05-17T06:17:31.220Z,100100.73
2018-05-17T06:18:36.999Z,100103.97
2018-05-17T06:19:43.546Z,100100.59
2018-05-17T06:20:49.441Z,100106.08
2018-05-17T06:21:55.232Z,100110.45
2018-05-17T06:23:01.045Z,100108.08
2018-05-17T06:24:06.826Z,100106.57
2018-05-17T06:25:13.376Z,100103.65
2018-05-17T06:26:19.161Z,100102.98
2018-05-17T06:27:24.940Z,100106.70
2018-05-17T06:28:30.762Z,100115.59
2018-05-17T06:29:36.549Z,100118.19
2018-05-17T06:30:42.319Z,100111.25
2018-05-17T06:31:48.107Z,100114.17
2018-05-17T06:32:53.891Z,100114.44
2018-05-17T06:33:59.689Z,100111.61
2018-05-17T06:35:05.471Z,100120.91
2018-05-17T06:36:12.021Z,100118.05
2018-05-17T06:37:17.798Z,100121.14
2018-05-17T06:38:23.576Z,100123.86
2018-05-17T06:39:29.525Z,100122.37
2018-05-17T06:40:35.306Z,100124.97
2018-05-17T06:41:41.089Z,100124.13
2018-05-17T06:42:46.911Z,100125.20
2018-05-17T06:43:52.814Z,100132.25
2018-05-17T06:44:58.734Z,100126.80
2018-05-17T06:46:04.549Z,100130.47
2018-05-17T06:47:11.096Z,100118.59
2018-05-17T06:48:17.658Z,100134.88
2018-05-17T06:49:24.211Z,100136.55
2018-05-17T06:50:31.008Z,100130.67
2018-05-17T06:51:36.820Z,100137.62
2018-05-17T06:52:43.364Z,100134.50
2018-05-17T06:53:49.138Z,100134.80
2018-05-17T06:54:54.924Z,100140.19
2018-05-17T06:56:00.718Z,100133.27
2018-05-17T06:57:06.512Z,100140.62
2018-05-17T06:58:12.294Z,100145.55
2018-05-17T06:59:17.910Z,100136.84
2018-05-17T07:00:23.687Z,100140.27
2018-05-17T07:01:29.488Z,100145.78
2018-05-17T07:02:35.269Z,100141.61
2018-05-17T07:03:41.046Z,100143.55
2018-05-17T07:04:46.833Z,100143.19
2018-05-17T07:05:53.375Z,100140.95
2018-05-17T07:06:59.170Z,100139.09
2018-05-17T07:08:04.949Z,100144.35
2018-05-17T07:09:10.749Z,100145.23
2018-05-17T07:10:16.531Z,100140.73
2018-05-17T07:11:22.311Z,100145.14
2018-05-17T07:12:28.887Z,100144.58
2018-05-17T07:13:34.680Z,100148.87
2018-05-17T07:14:40.461Z,100148.25
2018-05-17T07:15:47.012Z,100145.02
2018-05-17T07:16:53.560Z,100151.72
2018-05-17T07:17:59.304Z,100157.02
2018-05-17T07:19:05.171Z,100158.91
2018-05-17T07:20:10.964Z,100150.13
2018-05-17T07:21:16.745Z,100159.34
2018-05-17T07:22:23.309Z,100159.34
2018-05-17T07:23:30.307Z,100159.81
2018-05-17T07:24:36.098Z,100158.02
2018-05-17T07:25:41.882Z,100163.84
2018-05-17T07:26:47.672Z,100168.89
2018-05-17T07:27:53.454Z,100167.28
2018-05-17T07:29:00.018Z,100170.47
2018-05-17T07:30:05.148Z,100175.28
2018-05-17T07:31:10.935Z,100177.09
2018-05-17T07:32:16.707Z,100177.98
2018-05-17T07:33:22.489Z,100177.84
2018-05-17T07:34:28.287Z,100177.05
2018-05-17T07:35:34.071Z,100172.22
2018-05-17T07:36:39.918Z,100169.25
2018-05-17T07:37:46.627Z,100168.44
2018-05-17T07:38:52.422Z,100165.11
2018-05-17T07:39:58.235Z,100171.73
2018-05-17T07:41:04.780Z,100166.69
2018-05-17T07:42:10.563Z,100162.98
2018-05-17T07:43:16.341Z,100166.64
2018-05-17T07:44:22.111Z,100169.97
2018-05-17T07:45:27.920Z,100163.70
2018-05-17T07:46:33.691Z,100174.89
2018-05-17T07:47:39.480Z,100181.94
2018-05-17T07:48:45.267Z,100177.17
2018-05-17T07:49:51.042Z,100178.77
2018-05-17T07:50:57.588Z,100184.97
2018-05-17T07:52:04.136Z,100183.58
2018-05-17T07:53:10.103Z,100189.64
2018-05-17T07:54:16.639Z,100191.81
2018-05-17T07:55:22.415Z,100187.41
2018-05-17T07:56:28.212Z,100193.87
2018-05-17T07:57:33.975Z,100195.62
2018-05-17T07:58:39.760Z,100187.66
2018-05-17T07:59:45.577Z,100198.92
2018-05-17T08:00:52.176Z,100197.38
2018-05-17T08:01:57.964Z,100202.20
2018-05-17T08:03:03.777Z,100203.11
2018-05-17T08:04:09.560Z,100202.64
2018-05-17T08:05:16.098Z,100199.52
2018-05-17T08:06:21.895Z,100204.28
2018-05-17T08:07:27.707Z,100202.25
2018-05-17T08:08:34.253Z,100202.05
2018-05-17T08:09:40.810Z,100207.46
2018-05-17T08:10:46.601Z,100202.90
2018-05-17T08:11:52.406Z,100203.01
2018-05-17T08:12:58.977Z,100206.77
2018-05-17T08:14:04.438Z,100200.98
2018-05-17T08:15:10.215Z,100201.85
2018-05-17T08:16:15.991Z,100206.86
2018-05-17T08:17:22.522Z,100202.94
2018-05-17T08:18:28.327Z,100201.28
2018-05-17T08:19:34.108Z,100204.29
2018-05-17T08:20:39.883Z,100202.36
2018-05-17T08:21:45.663Z,100202.20
2018-05-17T08:22:51.511Z,100200.86
2018-05-17T08:23:57.315Z,100203.74
2018-05-17T08:25:03.098Z,100205.09
2018-05-17T08:26:08.894Z,100196.90
2018-05-17T08:27:14.730Z,100204.09
2018-05-17T08:28:20.680Z,100196.70
2018-05-17T08:29:27.252Z,100194.23
2018-05-17T08:30:33.032Z,100204.19
2018-05-17T08:31:38.819Z,100204.05
2018-05-17T08:32:45.362Z,100202.05
2018-05-17T08:33:51.145Z,100208.59
2018-05-17T08:34:57.710Z,100204.59
2018-05-17T08:36:03.496Z,100214.86
2018-05-17T08:37:09.483Z,100211.48
2018-05-17T08:38:16.056Z,100206.56
2018-05-17T08:39:21.820Z,100211.62
2018-05-17T08:40:27.636Z,100214.21
2018-05-17T08:41:33.454Z,100206.66
2018-05-17T08:42:39.295Z,100216.23
2018-05-17T08:43:45.212Z,100212.30
2018-05-17T08:44:51.003Z,100217.63
2018-05-17T08:45:57.560Z,100211.77
2018-05-17T08:47:04.176Z,100216.80
2018-05-17T08:48:09.984Z,100217.06
2018-05-17T08:49:15.751Z,100220.42
2018-05-17T08:50:21.588Z,100220.53
2018-05-17T08:51:27.716Z,100214.98
2018-05-17T08:52:33.519Z,100219.41
2018-05-17T08:53:39.307Z,100221.45
2018-05-17T08:54:45.074Z,100217.66
2018-05-17T08:55:50.881Z,100219.70
2018-05-17T08:56:56.704Z,100223.33
2018-05-17T08:58:03.251Z,100219.41
2018-05-17T08:59:09.016Z,100218.80
2018-05-17T09:00:15.555Z,100218.59
2018-05-17T09:01:22.102Z,100216.16
2018-05-17T09:02:27.928Z,100217.95
2018-05-17T09:03:33.836Z,100218.65
2018-05-17T09:04:39.591Z,100221.73
2018-05-17T09:05:45.404Z,100217.41
2018-05-17T09:06:51.983Z,100225.44
2018-05-17T09:07:57.807Z,100219.80
2018-05-17T09:09:03.383Z,100223.75
2018-05-17T09:10:09.160Z,100225.85
2018-05-17T09:11:16.689Z,100224.41
2018-05-17T09:12:22.466Z,100232.03
2018-05-17T09:13:28.352Z,100231.38
2018-05-17T09:14:34.293Z,100226.30
2018-05-17T09:15:40.832Z,100230.79
2018-05-17T09:16:46.603Z,100228.62
2018-05-17T09:17:53.162Z,100226.09
2018-05-17T09:18:59.737Z,100231.77
2018-05-17T09:20:05.533Z,100224.14
2018-05-17T09:21:11.326Z,100230.17
2018-05-17T09:22:16.909Z,100227.30
2018-05-17T09:23:22.702Z,100224.11
2018-05-17T09:24:28.495Z,100232.55
2018-05-17T09:25:34.283Z,100236.41
2018-05-17T09:26:40.047Z,100231.55
2018-05-17T09:27:45.832Z,100233.66
2018-05-17T09:28:51.647Z,100238.43
2018-05-17T09:29:57.440Z,100241.51
2018-05-17T09:31:04.231Z,100243.73
2018-05-17T09:32:10.037Z,100249.06
2018-05-17T09:33:15.807Z,100244.66
2018-05-17T09:34:21.583Z,100251.95
2018-05-17T09:35:27.471Z,100252.72
2018-05-17T09:36:34.015Z,100257.86
2018-05-17T09:37:39.578Z,100256.53
2018-05-17T09:38:45.367Z,100259.45
2018-05-17T09:39:51.147Z,100254.22
2018-05-17T09:40:57.022Z,100264.10
2018-05-17T09:42:02.795Z,100260.52
2018-05-17T09:43:08.263Z,100260.03
2018-05-17T09:44:14.049Z,100263.97
2018-05-17T09:45:19.619Z,100259.50
2018-05-17T09:46:25.427Z,100252.27
2018-05-17T09:47:31.297Z,100259.67
2018-05-17T09:48:37.218Z,100256.20
2018-05-17T09:49:43.019Z,100255.47
2018-05-17T09:50:49.580Z,100258.31
2018-05-17T09:51:56.152Z,100256.86
2018-05-17T09:53:02.705Z,100254.08
2018-05-17T09:54:09.234Z,100258.64
2018-05-17T09:55:15.016Z,100259.58
2018-05-17T09:56:21.558Z,100255.45
2018-05-17T09:57:27.348Z,100250.70
2018-05-17T09:58:33.128Z,100258.20
2018-05-17T09:59:38.901Z,100257.05
2018-05-17T10:00:48.268Z,100259.45
2018-05-17T10:01:53.833Z,100254.37
2018-05-17T10:02:59.629Z,100257.19
2018-05-17T10:04:05.083Z,100256.90
2018-05-17T10:05:10.891Z,100260.42
2018-05-17T10:06:16.687Z,100260.60
2018-05-17T10:07:22.472Z,100262.32
2018-05-17T10:08:29.056Z,100258.40
2018-05-17T10:09:34.835Z,100261.33
2018-05-17T10:10:40.615Z,100266.29
2018-05-17T10:11:47.146Z,100264.20
2018-05-17T10:12:52.951Z,100265.22
2018-05-17T10:13:58.759Z,100260.02
2018-05-17T10:15:04.976Z,100265.45
2018-05-17T10:16:10.769Z,100263.23
2018-05-17T10:17:17.387Z,100258.55
2018-05-17T10:18:23.170Z,100263.42
2018-05-17T10:19:29.185Z,100259.67
2018-05-17T10:20:35.402Z,100250.59
2018-05-17T10:21:41.160Z,100254.41
2018-05-17T10:22:46.930Z,100255.72
2018-05-17T10:23:53.481Z,100260.72
2018-05-17T10:24:59.277Z,100248.35
2018-05-17T10:26:05.063Z,100254.54
2018-05-17T10:27:10.860Z,100262.17
2018-05-17T10:28:16.636Z,100261.92
2018-05-17T10:29:22.461Z,100261.48
2018-05-17T10:30:29.219Z,100254.09
2018-05-17T10:31:35.000Z,100256.95
2018-05-17T10:32:40.784Z,100258.08
2018-05-17T10:33:46.576Z,100255.34
2018-05-17T10:34:53.133Z,100250.82
2018-05-17T10:35:59.019Z,100250.14
2018-05-17T10:37:05.255Z,100250.98
2018-05-17T10:38:11.803Z,100257.05
2018-05-17T10:39:16.760Z,100263.23
2018-05-17T10:40:22.546Z,100268.03
2018-05-17T10:41:28.365Z,100261.31
2018-05-17T10:42:34.129Z,100253.02
2018-05-17T10:43:39.904Z,100255.91
2018-05-17T10:44:46.452Z,100267.05
2018-05-17T10:45:52.238Z,100249.28
2018-05-17T10:46:58.044Z,100251.55
2018-05-17T10:48:04.602Z,100252.83
2018-05-17T10:49:10.379Z,100258.13
2018-05-17T10:50:16.151Z,100259.59
2018-05-17T10:51:21.932Z,100255.30
2018-05-17T10:52:27.737Z,100257.00
2018-05-17T10:53:33.530Z,100262.81
2018-05-17T10:54:40.079Z,100264.98
2018-05-17T10:55:45.860Z,100256.41
2018-05-17T10:56:52.188Z,100262.31
2018-05-17T10:57:58.358Z,100262.84
2018-05-17T10:59:04.217Z,100267.05
2018-05-17T11:00:10.180Z,100264.77
2018-05-17T11:01:15.959Z,100268.73
2018-05-17T11:02:21.710Z,100263.31
2018-05-17T11:03:28.276Z,100256.80
2018-05-17T11:04:34.441Z,100261.98
2018-05-17T11:05:39.919Z,100268.29
2018-05-17T11:06:45.687Z,100257.45
2018-05-17T11:07:52.261Z,100260.07
2018-05-17T11:08:58.828Z,100255.07
2018-05-17T11:10:04.339Z,100262.38
2018-05-17T11:11:10.122Z,100257.33
2018-05-17T11:12:15.983Z,100267.94
2018-05-17T11:13:21.883Z,100262.36
2018-05-17T11:14:28.464Z,100264.59
2018-05-17T11:15:34.540Z,100259.05
2018-05-17T11:16:40.311Z,100253.03
2018-05-17T11:17:46.090Z,100257.55
2018-05-17T11:18:53.118Z,100267.97
2018-05-17T11:19:58.914Z,100268.28
2018-05-17T11:21:04.705Z,100263.15
2018-05-17T11:22:10.475Z,100271.52
2018-05-17T11:23:17.030Z,100268.28
2018-05-17T11:24:23.588Z,100269.09
2018-05-17T11:25:30.155Z,100275.30
2018-05-17T11:26:36.699Z,100265.98
2018-05-17T11:27:42.475Z,100262.64
2018-05-17T11:28:48.251Z,100271.95
2018-05-17T11:29:54.067Z,100267.11
2018-05-17T11:30:59.888Z,100268.01
2018-05-17T11:32:06.427Z,100265.91
2018-05-17T11:33:12.300Z,100262.27
2018-05-17T11:34:18.210Z,100253.14
2018-05-17T11:35:23.651Z,100271.68
2018-05-17T11:36:30.209Z,100264.20
2018-05-17T11:37:35.994Z,100268.28
2018-05-17T11:39:40.900Z,100268.81
2018-05-17T11:40:47.303Z,100260.29
2018-05-17T11:41:53.114Z,100260.73
2018-05-17T11:42:58.896Z,100262.69
2018-05-17T11:44:04.393Z,100257.52
2018-05-17T11:45:10.859Z,100260.69
2018-05-17T11:46:16.636Z,100262.21
2018-05-17T11:47:22.425Z,100262.23
2018-05-17T11:48:28.992Z,100260.75
2018-05-17T11:49:34.941Z,100260.16
2018-05-17T11:50:40.712Z,100253.42
2018-05-17T11:51:46.484Z,100270.75
2018-05-17T11:52:52.287Z,100264.40
2018-05-17T11:53:58.057Z,100262.84
2018-05-17T11:55:03.836Z,100274.42
2018-05-17T11:56:09.628Z,100259.20
2018-05-17T11:57:15.495Z,100255.53
2018-05-17T11:58:22.836Z,100259.95
2018-05-17T11:59:28.610Z,100256.60
2018-05-17T12:00:34.383Z,100257.69
2018-05-17T12:01:40.931Z,100255.19
2018-05-17T12:02:46.719Z,100258.02
2018-05-17T12:03:52.692Z,100255.00
2018-05-17T12:04:58.472Z,100253.21
2018-05-17T12:06:05.012Z,100258.00
2018-05-17T12:07:10.790Z,100256.04
2018-05-17T12:08:16.559Z,100262.02
2018-05-17T12:09:22.355Z,100254.39
2018-05-17T12:10:28.888Z,100252.15
2018-05-17T12:11:34.660Z,100254.66
2018-05-17T12:12:41.207Z,100256.77
2018-05-17T12:13:46.998Z,100260.13
2018-05-17T12:14:52.794Z,100263.70
2018-05-17T12:15:59.350Z,100259.25
2018-05-17T12:17:04.800Z,100253.47
2018-05-17T12:18:11.451Z,100257.52
2018-05-17T12:19:18.005Z,100247.94
2018-05-17T12:20:23.885Z,100255.94
2018-05-17T12:21:29.779Z,100251.03
2018-05-17T12:22:35.621Z,100249.35
2018-05-17T12:23:41.414Z,100260.38
2018-05-17T12:24:46.855Z,100250.42
2018-05-17T12:25:52.951Z,100255.67
2018-05-17T12:27:00.237Z,100254.45
2018-05-17T12:28:06.120Z,100252.22
2018-05-17T12:29:11.912Z,100252.15
2018-05-17T12:30:17.671Z,100256.58
2018-05-17T12:31:24.228Z,100248.11
2018-05-17T12:32:30.782Z,100253.21
2018-05-17T12:33:36.568Z,100253.95
2018-05-17T12:34:42.344Z,100251.67
2018-05-17T12:35:48.109Z,100258.63
2018-05-17T12:36:53.924Z,100252.09
2018-05-17T12:37:59.687Z,100246.09
2018-05-17T12:39:04.587Z,100245.94
2018-05-17T12:40:10.378Z,100251.70
2018-05-17T12:41:17.019Z,100256.91
2018-05-17T12:42:22.809Z,100253.17
2018-05-17T12:43:28.585Z,100252.50